createdAt,value
2022-08-03T00:04:41.306Z,2.79
2022-08-03T00:09:47.687Z,3.03
2022-08-03T00:14:53.831Z,2.74
2022-08-03T00:19:59.578Z,2.91
2022-08-03T00:25:05.746Z,2.67
2022-08-03T00:30:12.105Z,2.78
2022-08-03T00:35:37.069Z,2.83
2022-08-03T00:40:24.102Z,2.91
2022-08-03T00:45:30.296Z,2.69
2022-08-03T00:50:36.502Z,3.19
2022-08-03T00:55:43.030Z,2.94
2022-08-03T01:00:49.315Z,2.84
2022-08-03T01:05:55.467Z,2.90
2022-08-03T01:11:01.742Z,3.24
2022-08-03T01:16:07.866Z,2.99
2022-08-03T01:21:14.147Z,3.04
2022-08-03T01:26:20.368Z,2.73
2022-08-03T01:31:26.803Z,2.76
2022-08-03T01:36:33.055Z,2.76
2022-08-03T01:41:39.406Z,3.03
2022-08-03T01:46:47.543Z,2.90
2022-08-03T01:51:58.687Z,3.02
2022-08-03T01:56:57.173Z,3.16
2022-08-03T02:02:16.024Z,2.97
2022-08-03T02:07:09.235Z,3.01
2022-08-03T02:12:15.734Z,2.90
2022-08-03T02:17:39.278Z,3.08
2022-08-03T02:22:27.497Z,2.96
2022-08-03T02:27:33.615Z,3.12
2022-08-03T02:32:39.949Z,3.07
2022-08-03T02:37:49.791Z,2.88
2022-08-03T02:42:51.918Z,2.99
2022-08-03T02:47:58.037Z,3.17
2022-08-03T02:53:04.311Z,3.13
2022-08-03T02:58:10.801Z,2.89
2022-08-03T03:03:17.123Z,3.02
2022-08-03T03:08:26.027Z,3.25
2022-08-03T03:13:29.547Z,3.50
2022-08-03T03:18:36.781Z,3.39
2022-08-03T03:23:43.187Z,3.33
2022-08-03T03:28:49.354Z,3.51
2022-08-03T03:34:27.726Z,3.47
2022-08-03T03:39:33.762Z,3.63
2022-08-03T03:44:40.068Z,3.62
2022-08-03T03:49:46.288Z,4.35
2022-08-03T03:54:52.145Z,4.24
2022-08-03T03:59:58.285Z,4.51
2022-08-03T04:05:04.715Z,4.83
2022-08-03T04:10:14.870Z,5.03
2022-08-03T04:15:17.485Z,5.49
2022-08-03T04:20:23.586Z,5.11
2022-08-03T04:25:29.925Z,5.10
2022-08-03T04:30:36.008Z,5.36
2022-08-03T04:36:01.731Z,5.14
2022-08-03T04:40:47.934Z,5.65
2022-08-03T04:45:54.214Z,5.08
2022-08-03T04:51:00.355Z,5.12
2022-08-03T04:56:06.677Z,5.66
2022-08-03T05:01:12.873Z,5.55
2022-08-03T05:06:19.040Z,6.23
2022-08-03T05:11:24.773Z,6.15
2022-08-03T05:16:31.030Z,6.45
2022-08-03T05:21:51.949Z,7.05
2022-08-03T05:26:43.462Z,6.91
2022-08-03T05:31:49.679Z,6.84
2022-08-03T05:36:55.934Z,7.41
2022-08-03T05:42:02.070Z,6.49
2022-08-03T05:47:08.325Z,6.23
2022-08-03T05:52:18.404Z,6.55
2022-08-03T05:57:20.681Z,5.90
2022-08-03T06:02:26.338Z,5.52
2022-08-03T06:07:32.646Z,5.87
2022-08-03T06:12:38.757Z,5.78
2022-08-03T06:17:45.848Z,5.13
2022-08-03T06:23:00.285Z,4.97
2022-08-03T06:27:58.194Z,5.15
2022-08-03T06:33:04.705Z,4.94
2022-08-03T06:38:11.074Z,4.71
2022-08-03T06:43:17.390Z,4.48
2022-08-03T06:48:23.874Z,4.54
2022-08-03T06:53:30.066Z,4.04
2022-08-03T06:58:36.302Z,4.22
2022-08-03T07:03:52.175Z,4.16
2022-08-03T07:08:51.885Z,4.14
2022-08-03T07:13:54.402Z,3.63
2022-08-03T07:19:01.002Z,3.97
2022-08-03T07:24:07.180Z,3.41
2022-08-03T07:29:15.485Z,3.52
2022-08-03T07:34:19.839Z,3.20
2022-08-03T07:39:26.048Z,3.13
2022-08-03T07:44:32.185Z,3.53
2022-08-03T07:49:38.552Z,3.06
2022-08-03T07:54:44.840Z,3.19
2022-08-03T08:00:01.828Z,2.78
2022-08-03T08:04:56.834Z,2.90
2022-08-03T08:10:03.202Z,2.67
2022-08-03T08:15:09.366Z,2.81
2022-08-03T08:20:15.906Z,2.57
2022-08-03T08:25:21.517Z,2.35
2022-08-03T08:30:27.858Z,2.44
2022-08-03T08:35:33.514Z,2.69
2022-08-03T08:40:39.810Z,2.55
2022-08-03T08:45:46.256Z,2.48
2022-08-03T08:50:52.583Z,2.40
2022-08-03T08:56:00.317Z,2.43
2022-08-03T09:01:04.616Z,2.46
2022-08-03T09:06:10.705Z,2.40
2022-08-03T09:11:17.066Z,2.39
2022-08-03T09:16:24.292Z,2.25
2022-08-03T09:21:32.544Z,2.36
2022-08-03T09:26:36.437Z,2.66
2022-08-03T09:31:43.628Z,2.53
2022-08-03T09:36:48.837Z,2.72
2022-08-03T09:41:54.972Z,2.52
2022-08-03T09:47:01.154Z,2.54
2022-08-03T09:52:33.568Z,2.30
2022-08-03T09:57:13.487Z,2.62
2022-08-03T10:02:20.155Z,2.66
2022-08-03T10:07:26.638Z,2.24
2022-08-03T10:12:32.910Z,2.55
2022-08-03T10:17:40.319Z,2.39
2022-08-03T10:22:47.177Z,2.62
2022-08-03T10:27:55.023Z,2.41
2022-08-03T10:33:01.323Z,2.37
2022-08-03T10:38:07.417Z,2.45
2022-08-03T10:43:13.685Z,2.22
2022-08-03T10:48:19.851Z,2.44
2022-08-03T10:53:26.035Z,2.61
2022-08-03T10:58:32.113Z,2.73
2022-08-03T11:03:38.409Z,2.78
2022-08-03T11:08:44.569Z,2.82
2022-08-03T11:13:50.894Z,3.07
2022-08-03T11:18:57.038Z,3.00
2022-08-03T11:24:06.617Z,3.31
2022-08-03T11:29:09.042Z,3.24
2022-08-03T11:34:15.400Z,2.88
2022-08-03T11:39:21.541Z,3.14
2022-08-03T11:44:27.883Z,2.90
2022-08-03T11:49:34.116Z,2.88
2022-08-03T11:54:40.347Z,2.96
2022-08-03T11:59:47.029Z,3.06
2022-08-03T12:04:53.498Z,3.09
2022-08-03T12:10:02.538Z,3.19
2022-08-03T12:15:08.706Z,3.07
2022-08-03T12:20:14.894Z,3.05
2022-08-03T12:25:21.189Z,2.62
2022-08-03T12:30:26.833Z,3.14
2022-08-03T12:35:33.340Z,3.14
2022-08-03T12:40:39.423Z,3.19
2022-08-03T12:45:45.794Z,2.83
2022-08-03T12:50:53.679Z,2.83
2022-08-03T12:56:04.996Z,2.98
2022-08-03T13:01:04.760Z,2.71
2022-08-03T13:06:09.642Z,2.83
2022-08-03T13:11:17.155Z,2.81
2022-08-03T13:16:23.363Z,2.85
2022-08-03T13:21:29.474Z,3.04
2022-08-03T13:26:36.147Z,2.99
2022-08-03T13:31:50.505Z,2.87
2022-08-03T13:37:07.815Z,2.86
2022-08-03T13:41:54.312Z,2.68
2022-08-03T13:47:00.615Z,3.18
2022-08-03T13:52:06.766Z,2.71
2022-08-03T13:58:11.638Z,2.92
2022-08-03T14:02:36.260Z,2.87
2022-08-03T14:07:42.462Z,2.76
2022-08-03T14:12:48.745Z,2.68
2022-08-03T14:17:55.157Z,2.86
2022-08-03T14:23:01.718Z,2.75
2022-08-03T14:28:07.886Z,3.04
2022-08-03T14:33:14.041Z,2.49
2022-08-03T14:38:20.338Z,2.60
2022-08-03T14:43:26.501Z,2.74
2022-08-03T14:50:29.465Z,2.75
2022-08-03T14:53:38.133Z,2.73
2022-08-03T14:58:44.306Z,2.71
2022-08-03T15:03:50.522Z,2.74
2022-08-03T15:09:21.638Z,3.03
2022-08-03T15:14:08.687Z,2.61
2022-08-03T15:20:03.303Z,2.45
2022-08-03T15:24:15.523Z,2.47
2022-08-03T15:30:04.824Z,2.85
2022-08-03T15:34:27.783Z,2.96
2022-08-03T15:39:34.188Z,3.02
2022-08-03T15:44:40.789Z,2.93
2022-08-03T15:49:47.118Z,3.07
2022-08-03T15:54:53.342Z,2.89
2022-08-03T15:59:59.664Z,3.18
2022-08-03T16:05:05.865Z,2.68
2022-08-03T16:10:12.068Z,3.09
2022-08-03T16:15:18.666Z,2.86
2022-08-03T16:20:33.783Z,3.29
2022-08-03T16:25:30.782Z,2.57
2022-08-03T16:30:37.324Z,2.67
2022-08-03T16:35:43.454Z,2.74
2022-08-03T16:40:49.749Z,2.81
2022-08-03T16:45:55.869Z,2.96
2022-08-03T16:51:02.203Z,2.99
2022-08-03T16:56:10.918Z,2.95
2022-08-03T17:01:22.205Z,2.71
2022-08-03T17:06:20.481Z,2.82
2022-08-03T17:11:26.345Z,2.85
2022-08-03T17:16:32.485Z,2.77
2022-08-03T17:21:39.264Z,2.85
2022-08-03T17:26:45.682Z,2.91
2022-08-03T17:31:51.553Z,2.89
2022-08-03T17:37:04.850Z,2.90
2022-08-03T17:42:03.118Z,4.19
2022-08-03T17:47:08.818Z,4.56
2022-08-03T17:52:20.057Z,5.23
2022-08-03T17:57:22.815Z,5.50
2022-08-03T18:02:30.705Z,5.28
2022-08-03T18:12:39.386Z,6.02
2022-08-03T18:17:55.858Z,5.30
2022-08-03T18:22:50.822Z,5.74
2022-08-03T18:27:56.962Z,5.66
2022-08-03T18:34:16.630Z,5.37
2022-08-03T18:38:18.900Z,5.61
2022-08-03T18:43:14.166Z,5.78
2022-08-03T18:48:20.414Z,5.17
2022-08-03T18:54:01.821Z,5.28
2022-08-03T18:58:32.382Z,5.44
2022-08-03T19:03:41.299Z,5.63
2022-08-03T19:08:44.273Z,4.97
2022-08-03T19:13:50.861Z,5.38
2022-08-03T19:18:56.842Z,5.63
2022-08-03T19:24:05.573Z,5.34
2022-08-03T19:29:14.807Z,6.06
2022-08-03T19:34:15.099Z,4.95
2022-08-03T19:39:20.761Z,5.58
2022-08-03T19:44:26.555Z,5.43
2022-08-03T19:49:59.978Z,5.14
2022-08-03T19:54:39.632Z,5.44
2022-08-03T19:59:49.509Z,5.45
2022-08-03T20:04:50.015Z,6.23
2022-08-03T20:09:56.649Z,5.82
2022-08-03T20:15:01.482Z,6.07
2022-08-03T20:20:07.633Z,5.38
2022-08-03T20:25:16.272Z,6.27
2022-08-03T20:30:19.609Z,6.67
2022-08-03T20:35:25.470Z,6.66
2022-08-03T20:40:31.140Z,6.50
2022-08-03T20:45:59.734Z,7.49
2022-08-03T20:50:43.311Z,6.68
2022-08-03T20:56:02.487Z,7.27
2022-08-03T21:00:55.330Z,7.92
2022-08-03T21:06:02.216Z,7.76
2022-08-03T21:11:07.971Z,9.35
2022-08-03T21:12:56.704Z,5.83
2022-08-03T21:16:15.192Z,10.32
2022-08-03T21:21:20.002Z,9.65
2022-08-03T21:26:26.201Z,9.76
2022-08-03T21:31:32.281Z,9.51
2022-08-03T21:36:38.890Z,10.31
2022-08-03T21:41:45.157Z,9.38
2022-08-03T21:46:51.423Z,9.27
2022-08-03T21:51:57.592Z,9.51
2022-08-03T21:57:03.854Z,8.38
2022-08-03T22:02:20.011Z,9.74
2022-08-03T22:07:15.933Z,8.99
2022-08-03T22:12:22.105Z,8.98
2022-08-03T22:17:54.057Z,9.78
2022-08-03T22:22:34.386Z,9.45
2022-08-03T22:27:41.146Z,10.67
2022-08-03T22:32:47.713Z,11.44
2022-08-03T22:37:53.957Z,12.02
2022-08-03T22:43:00.123Z,12.64
2022-08-03T22:48:06.438Z,13.51
2022-08-03T22:53:13.037Z,15.37
2022-08-03T22:58:19.823Z,14.09
2022-08-03T23:03:26.025Z,15.71
2022-08-03T23:08:31.903Z,15.36
2022-08-03T23:13:38.176Z,15.75
2022-08-03T23:18:44.777Z,16.47
2022-08-03T23:23:50.981Z,16.14
2022-08-03T23:28:57.265Z,15.79
2022-08-03T23:34:03.473Z,15.59
2022-08-03T23:39:09.344Z,15.58
2022-08-03T23:44:15.530Z,15.57
2022-08-03T23:49:21.261Z,15.34
2022-08-03T23:54:27.502Z,15.12
2022-08-03T23:59:33.858Z,16.04
